createdAt,value
2022-11-12T00:00:03.282Z,6.22
2022-11-12T00:02:50.106Z,5.97
2022-11-12T00:05:37.085Z,5.75
2022-11-12T00:08:25.650Z,6.75
2022-11-12T00:11:12.897Z,6.00
2022-11-12T00:13:59.945Z,5.68
2022-11-12T00:16:46.625Z,5.75
2022-11-12T00:19:33.721Z,6.28
2022-11-12T00:22:20.801Z,5.95
2022-11-12T00:25:09.863Z,5.70
2022-11-12T00:27:56.641Z,5.55
2022-11-12T00:30:43.719Z,6.03
2022-11-12T00:33:31.054Z,6.43
2022-11-12T00:36:17.730Z,5.47
2022-11-12T00:39:05.649Z,6.30
2022-11-12T00:41:54.481Z,6.50
2022-11-12T00:44:41.303Z,5.55
2022-11-12T00:47:28.163Z,5.70
2022-11-12T00:50:15.921Z,6.28
2022-11-12T00:53:02.843Z,5.53
2022-11-12T00:55:49.807Z,5.85
2022-11-12T00:58:38.484Z,5.30
2022-11-12T01:01:25.521Z,5.70
2022-11-12T01:04:12.904Z,5.55
2022-11-12T01:07:00.112Z,5.97
2022-11-12T01:09:47.004Z,5.50
2022-11-12T01:12:34.502Z,5.68
2022-11-12T01:15:22.886Z,6.10
2022-11-12T01:18:10.059Z,6.10
2022-11-12T01:20:56.664Z,6.32
2022-11-12T01:23:44.269Z,6.68
2022-11-12T01:26:30.969Z,6.35
2022-11-12T01:29:17.851Z,5.35
2022-11-12T01:32:06.281Z,6.22
2022-11-12T01:34:53.261Z,6.45
2022-11-12T01:37:40.220Z,6.57
2022-11-12T01:40:27.340Z,6.15
2022-11-12T01:43:14.647Z,6.28
2022-11-12T01:46:03.034Z,7.20
2022-11-12T01:48:53.845Z,6.40
2022-11-12T01:51:42.778Z,6.68
2022-11-12T01:54:29.925Z,5.63
2022-11-12T01:57:19.151Z,5.65
2022-11-12T02:00:08.055Z,6.25
2022-11-12T02:02:56.650Z,6.30
2022-11-12T02:05:45.312Z,6.53
2022-11-12T02:08:32.585Z,6.75
2022-11-12T02:11:19.895Z,6.13
2022-11-12T02:14:06.707Z,7.40
2022-11-12T02:16:53.676Z,6.45
2022-11-12T02:19:40.750Z,6.30
2022-11-12T02:22:29.088Z,7.50
2022-11-12T02:25:17.987Z,6.63
2022-11-12T02:28:06.757Z,5.85
2022-11-12T02:30:53.287Z,5.60
2022-11-12T02:33:40.205Z,6.47
2022-11-12T02:36:27.440Z,6.63
2022-11-12T02:39:15.496Z,6.15
2022-11-12T02:42:02.310Z,6.10
2022-11-12T02:44:49.308Z,7.07
2022-11-12T02:47:36.443Z,7.18
2022-11-12T02:50:23.155Z,6.82
2022-11-12T02:53:10.307Z,6.90
2022-11-12T02:55:58.401Z,7.20
2022-11-12T02:58:45.487Z,7.05
2022-11-12T03:01:32.504Z,7.75
2022-11-12T03:04:19.336Z,8.35
2022-11-12T03:07:06.261Z,8.57
2022-11-12T03:09:53.066Z,8.48
2022-11-12T03:12:41.791Z,7.60
2022-11-12T03:15:29.038Z,7.70
2022-11-12T03:18:15.932Z,8.57
2022-11-12T03:21:02.893Z,8.73
2022-11-12T03:23:49.879Z,7.88
2022-11-12T03:26:36.715Z,8.18
2022-11-12T03:29:26.306Z,8.32
2022-11-12T03:32:13.265Z,6.65
2022-11-12T03:35:00.015Z,8.32
2022-11-12T03:37:46.870Z,8.15
2022-11-12T03:40:34.287Z,8.20
2022-11-12T03:43:21.074Z,7.13
2022-11-12T03:46:09.565Z,8.23
2022-11-12T03:48:56.743Z,8.15
2022-11-12T03:51:43.576Z,9.25
2022-11-12T03:54:30.638Z,9.52
2022-11-12T03:57:17.594Z,9.02
2022-11-12T04:00:05.767Z,8.93
2022-11-12T04:02:53.860Z,8.55
2022-11-12T04:05:58.820Z,8.80
2022-11-12T04:08:45.755Z,8.65
2022-11-12T04:11:32.844Z,8.25
2022-11-12T04:14:19.613Z,7.13
2022-11-12T04:17:24.748Z,7.22
2022-11-12T04:20:33.132Z,8.45
2022-11-12T04:23:20.230Z,7.38
2022-11-12T04:26:24.676Z,6.85
2022-11-12T04:29:29.862Z,7.03
2022-11-12T04:32:18.115Z,7.35
2022-11-12T04:35:05.776Z,7.82
2022-11-12T04:37:55.105Z,7.28
2022-11-12T04:41:00.420Z,7.63
2022-11-12T04:44:04.950Z,7.68
2022-11-12T04:46:52.156Z,7.35
2022-11-12T04:49:38.955Z,7.30
2022-11-12T04:52:26.193Z,7.32
2022-11-12T04:55:14.576Z,6.90
2022-11-12T04:58:01.572Z,7.38
2022-11-12T05:00:48.578Z,7.45
2022-11-12T05:03:35.826Z,7.35
2022-11-12T05:06:40.724Z,7.03
2022-11-12T05:09:28.919Z,7.78
2022-11-12T05:12:17.020Z,7.03
2022-11-12T05:15:04.563Z,7.80
2022-11-12T05:17:51.363Z,7.03
2022-11-12T05:20:38.415Z,8.10
2022-11-12T05:23:25.485Z,7.03
2022-11-12T05:26:12.807Z,7.90
2022-11-12T05:29:02.987Z,7.40
2022-11-12T05:31:52.731Z,6.50
2022-11-12T05:34:39.736Z,7.22
2022-11-12T05:37:26.727Z,6.15
2022-11-12T05:40:14.279Z,7.18
2022-11-12T05:43:00.904Z,6.22
2022-11-12T05:45:48.963Z,6.93
2022-11-12T05:48:36.197Z,6.38
2022-11-12T05:51:23.113Z,5.80
2022-11-12T05:54:10.656Z,5.63
2022-11-12T05:56:57.873Z,6.28
2022-11-12T05:59:44.871Z,6.93
2022-11-12T06:02:33.240Z,5.85
2022-11-12T06:05:20.150Z,5.55
2022-11-12T06:08:07.833Z,5.65
2022-11-12T06:10:55.190Z,7.03
2022-11-12T06:13:41.922Z,6.15
2022-11-12T06:16:29.378Z,6.05
2022-11-12T06:19:18.665Z,6.10
2022-11-12T06:22:06.856Z,5.35
2022-11-12T06:24:53.767Z,6.25
2022-11-12T06:27:41.010Z,5.85
2022-11-12T06:30:27.697Z,5.78
2022-11-12T06:33:14.708Z,5.45
2022-11-12T06:36:06.591Z,6.18
2022-11-12T06:38:53.428Z,6.18
2022-11-12T06:41:40.245Z,5.80
2022-11-12T06:44:27.397Z,6.15
2022-11-12T06:47:14.511Z,5.00
2022-11-12T06:50:02.364Z,5.88
2022-11-12T06:52:50.606Z,5.90
2022-11-12T06:55:37.613Z,5.25
2022-11-12T06:58:25.024Z,5.45
2022-11-12T07:01:13.623Z,5.88
2022-11-12T07:04:00.651Z,6.13
2022-11-12T07:06:47.505Z,5.93
2022-11-12T07:09:36.139Z,6.78
2022-11-12T07:12:24.445Z,5.63
2022-11-12T07:15:12.372Z,6.28
2022-11-12T07:17:59.540Z,6.68
2022-11-12T07:20:48.929Z,6.05
2022-11-12T07:23:41.824Z,5.80
2022-11-12T07:26:30.327Z,6.35
2022-11-12T07:29:46.829Z,6.53
2022-11-12T07:32:40.107Z,5.57
2022-11-12T07:35:30.491Z,5.65
2022-11-12T07:38:17.420Z,7.18
2022-11-12T07:41:05.804Z,6.38
2022-11-12T07:43:55.041Z,6.13
2022-11-12T07:46:41.928Z,7.18
2022-11-12T07:49:28.966Z,6.95
2022-11-12T07:52:16.177Z,7.47
2022-11-12T07:55:03.131Z,7.22
2022-11-12T07:57:50.355Z,7.60
2022-11-12T08:00:38.568Z,7.55
2022-11-12T08:03:26.099Z,7.30
2022-11-12T08:06:13.296Z,8.10
2022-11-12T08:09:01.131Z,8.77
2022-11-12T08:11:47.946Z,8.30
2022-11-12T08:14:34.876Z,8.63
2022-11-12T08:17:24.523Z,8.35
2022-11-12T08:20:12.925Z,8.52
2022-11-12T08:23:01.542Z,7.90
2022-11-12T08:25:50.420Z,8.45
2022-11-12T08:28:38.409Z,8.32
2022-11-12T08:31:26.787Z,8.45
2022-11-12T08:34:18.640Z,7.95
2022-11-12T08:37:10.091Z,8.82
2022-11-12T08:39:57.043Z,8.57
2022-11-12T08:42:43.710Z,7.78
2022-11-12T08:45:31.167Z,8.43
2022-11-12T08:48:18.004Z,8.82
2022-11-12T08:51:07.001Z,9.00
2022-11-12T08:53:54.272Z,9.18
2022-11-12T08:56:41.116Z,9.52
2022-11-12T08:59:28.233Z,9.65
2022-11-12T09:02:15.497Z,9.50
2022-11-12T09:05:02.641Z,9.95
2022-11-12T09:07:58.231Z,11.38
2022-11-12T09:10:45.382Z,10.15
2022-11-12T09:13:32.398Z,11.57
2022-11-12T09:16:19.227Z,9.35
2022-11-12T09:19:05.991Z,9.35
2022-11-12T09:21:53.309Z,9.48
2022-11-12T09:24:42.014Z,9.43
2022-11-12T09:27:28.898Z,9.68
2022-11-12T09:30:16.127Z,10.07
2022-11-12T09:33:03.448Z,12.00
2022-11-12T09:35:50.748Z,10.93
2022-11-12T09:38:37.679Z,11.27
2022-11-12T09:41:28.507Z,10.43
2022-11-12T09:44:17.661Z,11.05
2022-11-12T09:47:09.120Z,10.90
2022-11-12T09:49:59.372Z,9.85
2022-11-12T09:52:47.639Z,9.75
2022-11-12T09:55:36.023Z,11.32
2022-11-12T09:58:24.380Z,11.55
2022-11-12T10:01:15.562Z,11.68
2022-11-12T10:04:09.764Z,10.48
2022-11-12T10:06:59.241Z,10.82
2022-11-12T10:09:51.915Z,10.68
2022-11-12T10:12:45.104Z,10.90
2022-11-12T10:15:59.028Z,10.63
2022-11-12T10:18:52.529Z,10.13
2022-11-12T10:21:44.850Z,9.88
2022-11-12T10:24:35.895Z,9.48
2022-11-12T10:27:26.205Z,10.88
2022-11-12T10:30:17.486Z,11.25
2022-11-12T10:33:06.552Z,10.75
2022-11-12T10:35:54.488Z,10.55
2022-11-12T10:38:44.606Z,10.70
2022-11-12T10:41:32.359Z,9.85
2022-11-12T10:44:27.872Z,8.90
2022-11-12T10:47:21.480Z,9.02
2022-11-12T10:50:20.809Z,11.43
2022-11-12T10:53:08.639Z,10.68
2022-11-12T10:56:00.103Z,10.98
2022-11-12T10:58:47.095Z,10.48
2022-11-12T11:01:35.935Z,10.07
2022-11-12T11:04:29.168Z,10.35
2022-11-12T11:07:24.755Z,11.38
2022-11-12T11:10:23.828Z,11.65
2022-11-12T11:13:11.899Z,11.52
2022-11-12T11:16:00.783Z,10.32
2022-11-12T11:18:49.795Z,9.50
2022-11-12T11:21:42.767Z,10.27
2022-11-12T11:24:42.021Z,8.95
2022-11-12T11:27:31.985Z,8.70
2022-11-12T11:30:20.667Z,8.52
2022-11-12T11:33:14.804Z,8.40
2022-11-12T11:36:06.730Z,8.70
2022-11-12T11:39:00.011Z,8.27
2022-11-12T11:41:53.134Z,7.43
2022-11-12T11:44:43.843Z,8.45
2022-11-12T11:47:59.371Z,8.45
2022-11-12T11:50:42.864Z,8.35
2022-11-12T11:53:31.811Z,7.20
2022-11-12T11:56:22.765Z,7.63
2022-11-12T11:59:18.408Z,8.95
2022-11-12T12:02:15.948Z,7.35
2022-11-12T12:05:07.070Z,7.72
2022-11-12T12:07:56.924Z,6.93
2022-11-12T12:11:06.801Z,6.43
2022-11-12T12:14:03.877Z,5.80
2022-11-12T12:16:56.799Z,5.57
2022-11-12T12:19:48.382Z,4.80
2022-11-12T12:22:37.960Z,5.45
2022-11-12T12:25:26.852Z,5.50
2022-11-12T12:28:16.872Z,4.88
2022-11-12T12:31:06.796Z,4.65
2022-11-12T12:33:57.268Z,4.32
2022-11-12T12:36:45.641Z,3.95
2022-11-12T12:39:37.537Z,4.22
2022-11-12T12:42:27.064Z,4.13
2022-11-12T12:45:29.576Z,4.88
2022-11-12T12:48:21.045Z,4.95
2022-11-12T12:51:09.715Z,4.40
2022-11-12T12:53:57.689Z,4.55
2022-11-12T12:56:45.847Z,4.55
2022-11-12T12:59:33.268Z,4.38
2022-11-12T13:02:22.377Z,4.70
2022-11-12T13:05:23.779Z,4.00
2022-11-12T13:08:13.521Z,4.95
2022-11-12T13:11:00.569Z,3.92
2022-11-12T13:13:47.574Z,4.25
2022-11-12T13:16:53.207Z,5.03
2022-11-12T13:19:41.797Z,4.55
2022-11-12T13:22:35.930Z,4.38
2022-11-12T13:25:28.473Z,3.97
2022-11-12T13:28:15.587Z,4.35
2022-11-12T13:31:04.077Z,4.20
2022-11-12T13:33:51.047Z,4.07
2022-11-12T13:36:38.509Z,4.75
2022-11-12T13:39:25.470Z,4.35
2022-11-12T13:42:40.830Z,5.22
2022-11-12T13:45:28.845Z,5.22
2022-11-12T13:48:19.805Z,5.20
2022-11-12T13:51:08.919Z,4.28
2022-11-12T13:53:56.235Z,4.70
2022-11-12T13:56:43.204Z,5.13
2022-11-12T13:59:31.861Z,5.00
2022-11-12T14:02:21.935Z,5.15
2022-11-12T14:05:15.961Z,5.20
2022-11-12T14:08:19.658Z,5.20
2022-11-12T14:11:13.329Z,5.28
2022-11-12T14:14:03.563Z,5.00
2022-11-12T14:16:56.378Z,5.75
2022-11-12T14:20:02.427Z,6.18
2022-11-12T14:22:50.564Z,6.65
2022-11-12T14:25:47.240Z,5.88
2022-11-12T14:28:35.209Z,6.00
2022-11-12T14:31:25.944Z,6.10
2022-11-12T14:34:24.572Z,6.63
2022-11-12T14:37:22.251Z,5.22
2022-11-12T14:40:16.698Z,4.70
2022-11-12T14:43:03.503Z,5.72
2022-11-12T14:45:50.966Z,5.35
2022-11-12T14:48:46.012Z,4.65
2022-11-12T14:51:37.311Z,5.28
2022-11-12T14:54:29.487Z,6.25
2022-11-12T14:57:20.569Z,4.97
2022-11-12T15:00:19.780Z,6.20
2022-11-12T15:03:07.803Z,6.75
2022-11-12T15:05:55.648Z,6.47
2022-11-12T15:08:44.411Z,6.20
2022-11-12T15:11:34.424Z,5.95
2022-11-12T15:14:23.161Z,6.20
2022-11-12T15:17:22.884Z,6.47
2022-11-12T15:20:15.055Z,6.10
2022-11-12T15:23:01.992Z,6.93
2022-11-12T15:25:59.224Z,6.40
2022-11-12T15:29:00.080Z,6.55
2022-11-12T15:31:48.408Z,6.60
2022-11-12T15:34:36.334Z,7.15
2022-11-12T15:37:26.804Z,7.25
2022-11-12T15:40:18.460Z,6.63
2022-11-12T15:43:15.601Z,7.40
2022-11-12T15:46:03.116Z,7.63
2022-11-12T15:48:55.756Z,7.65
2022-11-12T15:51:43.345Z,8.73
2022-11-12T15:54:30.747Z,7.88
2022-11-12T15:57:18.978Z,8.20
2022-11-12T16:00:09.041Z,8.73
2022-11-12T16:02:59.230Z,8.55
2022-11-12T16:05:46.675Z,9.25
2022-11-12T16:08:33.753Z,9.43
2022-11-12T16:11:39.842Z,9.48
2022-11-12T16:14:26.680Z,9.23
2022-11-12T16:17:16.439Z,9.27
2022-11-12T16:20:03.788Z,9.43
2022-11-12T16:22:51.383Z,9.30
2022-11-12T16:25:39.714Z,9.18
2022-11-12T16:28:26.612Z,9.77
2022-11-12T16:31:13.260Z,9.45
2022-11-12T16:34:01.396Z,9.60
2022-11-12T16:36:49.921Z,10.05
2022-11-12T16:39:37.083Z,10.43
2022-11-12T16:42:23.618Z,9.45
2022-11-12T16:45:11.160Z,9.32
2022-11-12T16:47:58.373Z,11.60
2022-11-12T16:50:46.926Z,10.15
2022-11-12T16:53:33.665Z,10.10
2022-11-12T16:56:21.977Z,10.50
2022-11-12T16:59:08.912Z,10.73
2022-11-12T17:01:56.384Z,9.88
2022-11-12T17:04:43.363Z,10.77
2022-11-12T17:07:32.220Z,10.43
2022-11-12T17:10:23.087Z,9.85
2022-11-12T17:13:11.146Z,11.07
2022-11-12T17:15:59.017Z,10.18
2022-11-12T17:18:46.384Z,11.05
2022-11-12T17:21:33.565Z,11.98
2022-11-12T17:24:22.149Z,11.50
2022-11-12T17:27:11.602Z,11.00
2022-11-12T17:29:59.106Z,12.38
2022-11-12T17:32:46.180Z,13.10
2022-11-12T17:35:34.578Z,13.32
2022-11-12T17:38:21.348Z,12.43
2022-11-12T17:41:11.089Z,11.68
2022-11-12T17:43:58.020Z,12.40
2022-11-12T17:46:45.584Z,13.75
2022-11-12T17:49:32.582Z,12.57
2022-11-12T17:52:19.998Z,12.48
2022-11-12T17:55:07.296Z,12.45
2022-11-12T17:57:55.925Z,13.40
2022-11-12T18:00:42.706Z,11.55
2022-11-12T18:03:30.092Z,11.70
2022-11-12T18:06:17.801Z,11.45
2022-11-12T18:09:05.981Z,12.75
2022-11-12T18:11:54.146Z,12.70
2022-11-12T18:14:43.049Z,12.65
2022-11-12T18:17:29.868Z,14.00
2022-11-12T18:20:17.436Z,12.32
2022-11-12T18:23:04.246Z,12.27
2022-11-12T18:25:51.771Z,13.52
2022-11-12T18:28:38.388Z,13.48
2022-11-12T18:31:28.043Z,13.23
2022-11-12T18:34:15.978Z,13.48
2022-11-12T18:37:03.474Z,13.15
2022-11-12T18:39:50.266Z,12.63
2022-11-12T18:42:37.530Z,12.25
2022-11-12T18:45:24.352Z,11.85
2022-11-12T18:48:13.289Z,12.50
2022-11-12T18:51:00.545Z,13.63
2022-11-12T18:53:48.353Z,13.43
2022-11-12T18:56:37.903Z,13.52
2022-11-12T18:59:30.885Z,12.90
2022-11-12T19:02:18.035Z,13.27
2022-11-12T19:05:06.590Z,12.82
2022-11-12T19:07:53.919Z,14.35
2022-11-12T19:10:41.789Z,12.23
2022-11-12T19:13:29.478Z,13.15
2022-11-12T19:16:18.537Z,13.88
2022-11-12T19:19:05.636Z,13.10
2022-11-12T19:21:54.374Z,14.15
2022-11-12T19:24:41.727Z,14.02
2022-11-12T19:27:31.816Z,14.18
2022-11-12T19:30:20.905Z,13.68
2022-11-12T19:33:08.999Z,15.13
2022-11-12T19:35:56.002Z,14.10
2022-11-12T19:38:46.959Z,14.23
2022-11-12T19:41:34.230Z,14.88
2022-11-12T19:44:21.500Z,14.35
2022-11-12T19:47:08.344Z,14.63
2022-11-12T19:49:55.823Z,15.40
2022-11-12T19:52:42.777Z,15.20
2022-11-12T19:55:38.677Z,15.10
2022-11-12T19:58:27.106Z,14.25
2022-11-12T20:01:16.030Z,13.10
2022-11-12T20:04:02.945Z,14.25
2022-11-12T20:06:51.334Z,12.98
2022-11-12T20:09:40.870Z,14.55
2022-11-12T20:12:29.952Z,13.52
2022-11-12T20:15:16.847Z,14.73
2022-11-12T20:18:04.200Z,14.82
2022-11-12T20:20:54.268Z,13.90
2022-11-12T20:23:43.272Z,13.55
2022-11-12T20:26:30.207Z,15.20
2022-11-12T20:29:18.793Z,15.02
2022-11-12T20:32:05.658Z,15.13
2022-11-12T20:34:52.949Z,14.65
2022-11-12T20:37:39.916Z,15.50
2022-11-12T20:40:27.165Z,14.95
2022-11-12T20:43:14.066Z,14.90
2022-11-12T20:46:02.936Z,15.10
2022-11-12T20:48:50.324Z,13.13
2022-11-12T20:51:37.746Z,14.85
2022-11-12T20:54:24.746Z,14.43
2022-11-12T20:57:12.342Z,15.32
2022-11-12T20:59:59.243Z,15.32
2022-11-12T21:02:47.999Z,14.65
2022-11-12T21:05:34.961Z,15.45
2022-11-12T21:08:22.049Z,15.63
2022-11-12T21:11:09.763Z,13.48
2022-11-12T21:13:57.031Z,15.60
2022-11-12T21:16:43.992Z,17.55
2022-11-12T21:19:32.721Z,15.93
2022-11-12T21:22:19.573Z,16.85
2022-11-12T21:25:07.011Z,15.82
2022-11-12T21:27:54.013Z,16.23
2022-11-12T21:30:41.135Z,16.63
2022-11-12T21:33:27.872Z,16.80
2022-11-12T21:36:16.936Z,16.00
2022-11-12T21:39:04.269Z,15.75
2022-11-12T21:41:53.864Z,15.82
2022-11-12T21:44:40.725Z,15.63
2022-11-12T21:47:27.945Z,15.77
2022-11-12T21:50:15.137Z,14.50
2022-11-12T21:53:03.928Z,15.82
2022-11-12T21:55:50.879Z,14.00
2022-11-12T21:58:38.901Z,14.15
2022-11-12T22:01:26.208Z,14.32
2022-11-12T22:04:18.123Z,13.98
2022-11-12T22:07:05.600Z,12.32
2022-11-12T22:09:56.755Z,12.90
2022-11-12T22:13:04.922Z,12.80
2022-11-12T22:15:50.870Z,12.57
2022-11-12T22:18:38.094Z,11.43
2022-11-12T22:21:26.244Z,9.98
2022-11-12T22:24:13.214Z,12.02
2022-11-12T22:27:05.423Z,11.52
2022-11-12T22:29:52.842Z,11.73
2022-11-12T22:32:39.842Z,11.25
2022-11-12T22:35:26.981Z,11.10
2022-11-12T22:38:13.667Z,10.63
2022-11-12T22:41:02.721Z,10.55
2022-11-12T22:43:50.946Z,11.90
2022-11-12T22:46:38.241Z,11.23
2022-11-12T22:49:25.494Z,10.10
2022-11-12T22:52:12.830Z,12.57
2022-11-12T22:54:59.905Z,12.60
2022-11-12T22:57:46.867Z,11.25
2022-11-12T23:00:35.122Z,11.23
2022-11-12T23:03:22.109Z,11.10
2022-11-12T23:06:08.868Z,11.32
2022-11-12T23:08:56.507Z,10.93
2022-11-12T23:11:43.321Z,10.55
2022-11-12T23:14:30.459Z,11.95
2022-11-12T23:17:18.475Z,11.60
2022-11-12T23:20:05.761Z,10.95
2022-11-12T23:22:52.887Z,10.30
2022-11-12T23:25:39.752Z,9.38
2022-11-12T23:28:27.354Z,9.95
2022-11-12T23:31:15.374Z,9.02
2022-11-12T23:34:03.420Z,10.13
2022-11-12T23:36:50.385Z,8.10
2022-11-12T23:39:37.545Z,9.93
2022-11-12T23:42:24.718Z,9.80
2022-11-12T23:45:12.524Z,9.65
2022-11-12T23:47:59.340Z,8.80
2022-11-12T23:50:48.202Z,9.25
2022-11-12T23:53:35.656Z,8.60
2022-11-12T23:56:22.594Z,9.07
2022-11-12T23:59:09.609Z,8.93
